sensor_id;sensor_type;location;lat;lon;timestamp;P1;durP1;ratioP1;P2;durP2;ratioP2
3046;SDS011;1533;44.816;20.420;2022-11-11T06:36:07;28.40;;;20.73;;
3046;SDS011;1533;44.816;20.420;2022-11-11T06:38:38;29.40;;;22.87;;
3046;SDS011;1533;44.816;20.420;2022-11-11T06:41:11;33.87;;;21.63;;
3046;SDS011;1533;44.816;20.420;2022-11-11T06:44:10;31.97;;;20.10;;
3046;SDS011;1533;44.816;20.420;2022-11-11T06:46:42;53.67;;;22.50;;
3046;SDS011;1533;44.816;20.420;2022-11-11T06:49:42;32.10;;;20.43;;
3046;SDS011;1533;44.816;20.420;2022-11-11T06:52:17;33.43;;;23.47;;
3046;SDS011;1533;44.816;20.420;2022-11-11T07:54:42;31.50;;;21.97;;
3046;SDS011;1533;44.816;20.420;2022-11-11T07:57:37;30.83;;;21.87;;
3046;SDS011;1533;44.816;20.420;2022-11-11T08:00:46;33.17;;;23.13;;
3046;SDS011;1533;44.816;20.420;2022-11-11T08:03:35;29.50;;;22.47;;
3046;SDS011;1533;44.816;20.420;2022-11-11T09:01:03;29.60;;;22.13;;
3046;SDS011;1533;44.816;20.420;2022-11-11T09:03:59;29.50;;;21.70;;
3046;SDS011;1533;44.816;20.420;2022-11-11T09:06:50;28.30;;;21.23;;
3046;SDS011;1533;44.816;20.420;2022-11-11T09:09:21;29.37;;;22.60;;
3046;SDS011;1533;44.816;20.420;2022-11-11T09:26:17;33.93;;;22.50;;
3046;SDS011;1533;44.816;20.420;2022-11-11T09:31:57;32.40;;;22.40;;
3046;SDS011;1533;44.816;20.420;2022-11-11T09:35:13;28.00;;;21.40;;
3046;SDS011;1533;44.816;20.420;2022-11-11T09:37:55;36.77;;;23.33;;
3046;SDS011;1533;44.816;20.420;2022-11-11T09:40:47;30.43;;;22.10;;
3046;SDS011;1533;44.816;20.420;2022-11-11T10:00:30;43.77;;;31.67;;
3046;SDS011;1533;44.816;20.420;2022-11-11T10:12:32;32.90;;;24.83;;
3046;SDS011;1533;44.816;20.420;2022-11-11T10:15:08;34.60;;;25.50;;
3046;SDS011;1533;44.816;20.420;2022-11-11T10:23:31;33.97;;;24.80;;
3046;SDS011;1533;44.816;20.420;2022-11-11T10:32:33;32.57;;;24.63;;
3046;SDS011;1533;44.816;20.420;2022-11-11T10:35:29;31.57;;;24.53;;
3046;SDS011;1533;44.816;20.420;2022-11-11T10:42:33;35.87;;;27.10;;
3046;SDS011;1533;44.816;20.420;2022-11-11T10:51:50;34.33;;;25.50;;
3046;SDS011;1533;44.816;20.420;2022-11-11T11:01:53;34.93;;;23.30;;
3046;SDS011;1533;44.816;20.420;2022-11-11T11:24:22;43.53;;;28.50;;
3046;SDS011;1533;44.816;20.420;2022-11-11T11:27:11;43.20;;;32.00;;
3046;SDS011;1533;44.816;20.420;2022-11-11T11:29:49;43.70;;;29.40;;
3046;SDS011;1533;44.816;20.420;2022-11-11T11:32:35;46.07;;;29.50;;
3046;SDS011;1533;44.816;20.420;2022-11-11T11:38:08;38.70;;;29.57;;
3046;SDS011;1533;44.816;20.420;2022-11-11T11:40:47;45.43;;;32.60;;
3046;SDS011;1533;44.816;20.420;2022-11-11T11:46:27;38.80;;;29.27;;
3046;SDS011;1533;44.816;20.420;2022-11-11T11:52:05;41.70;;;30.87;;
3046;SDS011;1533;44.816;20.420;2022-11-11T11:54:54;44.47;;;30.57;;
3046;SDS011;1533;44.816;20.420;2022-11-11T12:14:59;40.67;;;28.70;;
3046;SDS011;1533;44.816;20.420;2022-11-11T12:18:40;45.13;;;32.23;;
3046;SDS011;1533;44.816;20.420;2022-11-11T12:21:27;43.63;;;31.63;;
3046;SDS011;1533;44.816;20.420;2022-11-11T12:26:42;41.10;;;30.10;;
3046;SDS011;1533;44.816;20.420;2022-11-11T12:35:24;46.00;;;31.10;;
3046;SDS011;1533;44.816;20.420;2022-11-11T12:43:41;45.67;;;28.30;;
3046;SDS011;1533;44.816;20.420;2022-11-11T12:52:17;42.50;;;26.70;;
3046;SDS011;1533;44.816;20.420;2022-11-11T13:00:38;40.63;;;29.10;;
3046;SDS011;1533;44.816;20.420;2022-11-11T13:09:24;37.00;;;26.43;;
3046;SDS011;1533;44.816;20.420;2022-11-11T13:14:30;37.17;;;26.50;;
3046;SDS011;1533;44.816;20.420;2022-11-11T13:17:32;36.00;;;24.70;;
3046;SDS011;1533;44.816;20.420;2022-11-11T13:22:46;35.37;;;23.40;;
3046;SDS011;1533;44.816;20.420;2022-11-11T13:25:16;31.60;;;24.07;;
3046;SDS011;1533;44.816;20.420;2022-11-11T13:33:14;35.93;;;24.40;;
3046;SDS011;1533;44.816;20.420;2022-11-11T13:35:45;33.90;;;23.13;;
3046;SDS011;1533;44.816;20.420;2022-11-11T13:38:24;30.83;;;21.40;;
3046;SDS011;1533;44.816;20.420;2022-11-11T13:40:51;30.30;;;22.50;;
3046;SDS011;1533;44.816;20.420;2022-11-11T13:43:23;31.57;;;22.00;;
3046;SDS011;1533;44.816;20.420;2022-11-11T13:45:53;30.97;;;21.60;;
3046;SDS011;1533;44.816;20.420;2022-11-11T13:48:23;27.57;;;19.80;;
3046;SDS011;1533;44.816;20.420;2022-11-11T13:50:52;29.43;;;22.13;;
3046;SDS011;1533;44.816;20.420;2022-11-11T13:53:38;27.80;;;20.37;;
3046;SDS011;1533;44.816;20.420;2022-11-11T13:56:07;27.00;;;19.90;;
3046;SDS011;1533;44.816;20.420;2022-11-11T13:58:36;28.37;;;19.70;;
3046;SDS011;1533;44.816;20.420;2022-11-11T14:01:07;27.77;;;19.60;;
3046;SDS011;1533;44.816;20.420;2022-11-11T14:13:49;26.57;;;19.40;;
3046;SDS011;1533;44.816;20.420;2022-11-11T14:21:55;27.20;;;19.60;;
3046;SDS011;1533;44.816;20.420;2022-11-11T14:24:46;33.40;;;20.63;;
3046;SDS011;1533;44.816;20.420;2022-11-11T14:27:19;28.07;;;21.87;;
3046;SDS011;1533;44.816;20.420;2022-11-11T14:29:59;27.70;;;20.23;;
3046;SDS011;1533;44.816;20.420;2022-11-11T14:37:56;26.77;;;19.77;;
3046;SDS011;1533;44.816;20.420;2022-11-11T14:40:36;31.77;;;22.00;;
3046;SDS011;1533;44.816;20.420;2022-11-11T14:43:32;29.00;;;21.10;;
3046;SDS011;1533;44.816;20.420;2022-11-11T14:46:05;29.00;;;21.90;;
3046;SDS011;1533;44.816;20.420;2022-11-11T14:54:03;29.67;;;21.87;;
3046;SDS011;1533;44.816;20.420;2022-11-11T14:56:39;35.53;;;24.97;;
3046;SDS011;1533;44.816;20.420;2022-11-11T14:59:11;34.63;;;24.37;;
3046;SDS011;1533;44.816;20.420;2022-11-11T15:01:45;36.43;;;23.60;;
3046;SDS011;1533;44.816;20.420;2022-11-11T15:04:13;31.80;;;24.47;;
3046;SDS011;1533;44.816;20.420;2022-11-11T15:06:46;30.00;;;23.27;;
3046;SDS011;1533;44.816;20.420;2022-11-11T15:12:16;31.60;;;24.23;;
3046;SDS011;1533;44.816;20.420;2022-11-11T15:15:38;28.33;;;22.20;;
3046;SDS011;1533;44.816;20.420;2022-11-11T15:32:32;34.27;;;26.07;;
3046;SDS011;1533;44.816;20.420;2022-11-11T15:38:10;32.53;;;25.40;;
3046;SDS011;1533;44.816;20.420;2022-11-11T15:40:42;34.60;;;26.40;;
3046;SDS011;1533;44.816;20.420;2022-11-11T15:43:25;37.00;;;25.93;;
3046;SDS011;1533;44.816;20.420;2022-11-11T15:45:56;35.20;;;26.60;;
3046;SDS011;1533;44.816;20.420;2022-11-11T15:48:34;38.43;;;27.53;;
3046;SDS011;1533;44.816;20.420;2022-11-11T15:51:17;37.33;;;27.33;;
3046;SDS011;1533;44.816;20.420;2022-11-11T15:53:52;33.27;;;26.97;;
3046;SDS011;1533;44.816;20.420;2022-11-11T15:56:30;36.10;;;26.73;;
3046;SDS011;1533;44.816;20.420;2022-11-11T15:59:16;39.57;;;27.57;;
3046;SDS011;1533;44.816;20.420;2022-11-11T16:01:41;40.20;;;29.83;;
3046;SDS011;1533;44.816;20.420;2022-11-11T16:04:29;44.87;;;30.23;;
3046;SDS011;1533;44.816;20.420;2022-11-11T16:06:56;43.57;;;30.73;;
3046;SDS011;1533;44.816;20.420;2022-11-11T16:09:30;40.30;;;31.37;;
3046;SDS011;1533;44.816;20.420;2022-11-11T16:11:59;37.13;;;27.77;;
3046;SDS011;1533;44.816;20.420;2022-11-11T16:16:53;44.57;;;31.17;;
3046;SDS011;1533;44.816;20.420;2022-11-11T16:19:30;46.03;;;33.23;;
3046;SDS011;1533;44.816;20.420;2022-11-11T16:22:04;45.57;;;34.03;;
3046;SDS011;1533;44.816;20.420;2022-11-11T16:24:37;44.93;;;33.20;;
3046;SDS011;1533;44.816;20.420;2022-11-11T16:27:16;42.47;;;32.73;;
3046;SDS011;1533;44.816;20.420;2022-11-11T16:29:43;45.43;;;33.70;;
3046;SDS011;1533;44.816;20.420;2022-11-11T16:32:42;43.07;;;30.43;;
3046;SDS011;1533;44.816;20.420;2022-11-11T16:35:01;48.23;;;33.13;;
3046;SDS011;1533;44.816;20.420;2022-11-11T16:37:50;40.80;;;31.93;;
3046;SDS011;1533;44.816;20.420;2022-11-11T16:43:18;46.20;;;33.47;;
3046;SDS011;1533;44.816;20.420;2022-11-11T16:46:02;49.03;;;33.90;;
3046;SDS011;1533;44.816;20.420;2022-11-11T16:48:40;52.40;;;36.33;;
3046;SDS011;1533;44.816;20.420;2022-11-11T16:54:10;45.83;;;35.10;;
3046;SDS011;1533;44.816;20.420;2022-11-11T16:56:44;50.03;;;35.63;;
3046;SDS011;1533;44.816;20.420;2022-11-11T16:59:22;49.30;;;36.27;;
3046;SDS011;1533;44.816;20.420;2022-11-11T17:01:49;44.47;;;34.80;;
3046;SDS011;1533;44.816;20.420;2022-11-11T17:04:15;51.70;;;38.63;;
3046;SDS011;1533;44.816;20.420;2022-11-11T17:09:33;43.90;;;33.63;;
3046;SDS011;1533;44.816;20.420;2022-11-11T17:12:05;45.70;;;35.50;;
3046;SDS011;1533;44.816;20.420;2022-11-11T17:14:37;52.10;;;36.20;;
3046;SDS011;1533;44.816;20.420;2022-11-11T17:17:12;47.30;;;35.70;;
3046;SDS011;1533;44.816;20.420;2022-11-11T17:19:37;51.57;;;35.70;;
3046;SDS011;1533;44.816;20.420;2022-11-11T17:22:07;50.97;;;36.20;;
3046;SDS011;1533;44.816;20.420;2022-11-11T17:24:34;57.17;;;38.30;;
3046;SDS011;1533;44.816;20.420;2022-11-11T17:27:01;50.50;;;36.80;;
3046;SDS011;1533;44.816;20.420;2022-11-11T17:29:27;47.80;;;37.10;;
3046;SDS011;1533;44.816;20.420;2022-11-11T17:31:52;50.53;;;40.93;;
3046;SDS011;1533;44.816;20.420;2022-11-11T17:34:18;65.53;;;45.40;;
3046;SDS011;1533;44.816;20.420;2022-11-11T17:36:43;53.47;;;41.50;;
3046;SDS011;1533;44.816;20.420;2022-11-11T17:39:11;64.77;;;41.20;;
3046;SDS011;1533;44.816;20.420;2022-11-11T17:41:37;62.67;;;42.90;;
3046;SDS011;1533;44.816;20.420;2022-11-11T17:44:02;57.17;;;42.07;;
3046;SDS011;1533;44.816;20.420;2022-11-11T17:46:28;59.07;;;41.50;;
3046;SDS011;1533;44.816;20.420;2022-11-11T17:48:54;59.63;;;41.40;;
3046;SDS011;1533;44.816;20.420;2022-11-11T17:51:44;54.43;;;40.67;;
3046;SDS011;1533;44.816;20.420;2022-11-11T17:54:17;58.70;;;42.63;;
3046;SDS011;1533;44.816;20.420;2022-11-11T17:56:48;54.50;;;41.27;;
3046;SDS011;1533;44.816;20.420;2022-11-11T17:59:20;55.07;;;40.30;;
3046;SDS011;1533;44.816;20.420;2022-11-11T18:02:01;59.43;;;41.37;;
3046;SDS011;1533;44.816;20.420;2022-11-11T18:04:40;53.90;;;38.10;;
3046;SDS011;1533;44.816;20.420;2022-11-11T18:07:06;54.33;;;39.40;;
3046;SDS011;1533;44.816;20.420;2022-11-11T18:09:36;54.23;;;39.80;;
3046;SDS011;1533;44.816;20.420;2022-11-11T18:12:10;51.20;;;36.87;;
3046;SDS011;1533;44.816;20.420;2022-11-11T18:14:57;48.93;;;37.17;;
3046;SDS011;1533;44.816;20.420;2022-11-11T18:17:25;52.63;;;36.07;;
3046;SDS011;1533;44.816;20.420;2022-11-11T18:19:52;47.20;;;35.57;;
3046;SDS011;1533;44.816;20.420;2022-11-11T18:39:50;54.90;;;38.63;;
3046;SDS011;1533;44.816;20.420;2022-11-11T18:42:16;50.20;;;36.97;;
3046;SDS011;1533;44.816;20.420;2022-11-11T18:44:41;51.53;;;38.33;;
3046;SDS011;1533;44.816;20.420;2022-11-11T18:47:10;50.87;;;39.07;;
3046;SDS011;1533;44.816;20.420;2022-11-11T18:49:43;47.20;;;38.50;;
3046;SDS011;1533;44.816;20.420;2022-11-11T18:52:23;55.73;;;37.77;;
3046;SDS011;1533;44.816;20.420;2022-11-11T18:55:15;55.83;;;39.37;;
3046;SDS011;1533;44.816;20.420;2022-11-11T19:00:32;57.83;;;39.97;;
3046;SDS011;1533;44.816;20.420;2022-11-11T19:03:05;53.90;;;36.77;;
3046;SDS011;1533;44.816;20.420;2022-11-11T19:08:31;56.47;;;39.77;;
3046;SDS011;1533;44.816;20.420;2022-11-11T19:13:58;66.13;;;39.27;;
3046;SDS011;1533;44.816;20.420;2022-11-11T19:16:27;54.40;;;39.57;;
3046;SDS011;1533;44.816;20.420;2022-11-11T19:19:35;54.90;;;38.80;;
3046;SDS011;1533;44.816;20.420;2022-11-11T19:28:24;54.13;;;39.00;;
3046;SDS011;1533;44.816;20.420;2022-11-11T19:33:42;52.47;;;38.90;;
3046;SDS011;1533;44.816;20.420;2022-11-11T19:39:42;52.50;;;38.97;;
3046;SDS011;1533;44.816;20.420;2022-11-11T19:44:52;50.47;;;39.77;;
3046;SDS011;1533;44.816;20.420;2022-11-11T19:48:08;54.83;;;41.70;;
3046;SDS011;1533;44.816;20.420;2022-11-11T19:53:54;57.13;;;41.20;;
3046;SDS011;1533;44.816;20.420;2022-11-11T19:56:23;57.80;;;41.57;;
3046;SDS011;1533;44.816;20.420;2022-11-11T19:58:55;62.43;;;44.77;;
3046;SDS011;1533;44.816;20.420;2022-11-11T20:01:24;53.37;;;39.77;;
3046;SDS011;1533;44.816;20.420;2022-11-11T20:03:50;52.80;;;40.67;;
3046;SDS011;1533;44.816;20.420;2022-11-11T20:08:55;54.40;;;40.50;;
3046;SDS011;1533;44.816;20.420;2022-11-11T20:11:23;57.03;;;40.57;;
3046;SDS011;1533;44.816;20.420;2022-11-11T20:13:50;61.23;;;41.50;;
3046;SDS011;1533;44.816;20.420;2022-11-11T20:16:15;55.37;;;40.70;;
3046;SDS011;1533;44.816;20.420;2022-11-11T20:18:41;55.30;;;41.20;;
3046;SDS011;1533;44.816;20.420;2022-11-11T20:21:08;62.70;;;42.37;;
3046;SDS011;1533;44.816;20.420;2022-11-11T20:23:37;55.23;;;42.97;;
3046;SDS011;1533;44.816;20.420;2022-11-11T20:26:11;54.90;;;40.87;;
3046;SDS011;1533;44.816;20.420;2022-11-11T20:28:43;60.70;;;45.40;;
3046;SDS011;1533;44.816;20.420;2022-11-11T20:31:10;59.70;;;45.30;;
3046;SDS011;1533;44.816;20.420;2022-11-11T20:33:36;64.40;;;43.07;;
3046;SDS011;1533;44.816;20.420;2022-11-11T20:36:08;56.80;;;42.43;;
3046;SDS011;1533;44.816;20.420;2022-11-11T20:38:35;63.33;;;43.63;;
3046;SDS011;1533;44.816;20.420;2022-11-11T20:41:05;57.70;;;43.10;;
3046;SDS011;1533;44.816;20.420;2022-11-11T20:43:34;59.10;;;42.80;;
3046;SDS011;1533;44.816;20.420;2022-11-11T20:46:00;55.30;;;44.13;;
3046;SDS011;1533;44.816;20.420;2022-11-11T20:48:26;62.80;;;42.80;;
3046;SDS011;1533;44.816;20.420;2022-11-11T20:50:59;54.43;;;40.97;;
3046;SDS011;1533;44.816;20.420;2022-11-11T20:53:28;52.17;;;40.33;;
3046;SDS011;1533;44.816;20.420;2022-11-11T20:55:58;58.33;;;43.70;;
3046;SDS011;1533;44.816;20.420;2022-11-11T20:58:24;52.47;;;40.00;;
3046;SDS011;1533;44.816;20.420;2022-11-11T21:00:50;54.70;;;40.27;;
3046;SDS011;1533;44.816;20.420;2022-11-11T21:03:18;55.70;;;40.47;;
3046;SDS011;1533;44.816;20.420;2022-11-11T21:05:44;57.57;;;39.87;;
3046;SDS011;1533;44.816;20.420;2022-11-11T21:08:11;57.13;;;43.77;;
3046;SDS011;1533;44.816;20.420;2022-11-11T21:10:37;62.73;;;39.87;;
3046;SDS011;1533;44.816;20.420;2022-11-11T21:13:04;52.00;;;37.50;;
3046;SDS011;1533;44.816;20.420;2022-11-11T21:15:30;55.77;;;40.60;;
3046;SDS011;1533;44.816;20.420;2022-11-11T21:17:55;53.17;;;40.13;;
3046;SDS011;1533;44.816;20.420;2022-11-11T21:20:21;49.63;;;39.07;;
3046;SDS011;1533;44.816;20.420;2022-11-11T21:22:50;54.90;;;40.17;;
3046;SDS011;1533;44.816;20.420;2022-11-11T21:25:16;55.00;;;41.50;;
3046;SDS011;1533;44.816;20.420;2022-11-11T21:27:41;57.03;;;40.53;;
3046;SDS011;1533;44.816;20.420;2022-11-11T21:30:07;52.83;;;39.37;;
3046;SDS011;1533;44.816;20.420;2022-11-11T21:32:38;59.57;;;41.80;;
3046;SDS011;1533;44.816;20.420;2022-11-11T21:35:13;56.43;;;43.40;;
3046;SDS011;1533;44.816;20.420;2022-11-11T21:37:48;63.03;;;42.20;;
3046;SDS011;1533;44.816;20.420;2022-11-11T21:40:15;58.97;;;41.73;;
3046;SDS011;1533;44.816;20.420;2022-11-11T21:43:10;52.70;;;39.90;;
3046;SDS011;1533;44.816;20.420;2022-11-11T21:45:38;55.07;;;39.87;;
3046;SDS011;1533;44.816;20.420;2022-11-11T21:48:12;53.63;;;38.53;;
3046;SDS011;1533;44.816;20.420;2022-11-11T21:50:40;58.40;;;39.43;;
3046;SDS011;1533;44.816;20.420;2022-11-11T21:53:13;52.53;;;38.47;;
3046;SDS011;1533;44.816;20.420;2022-11-11T21:55:50;53.23;;;38.17;;
3046;SDS011;1533;44.816;20.420;2022-11-11T21:58:16;53.77;;;39.20;;
3046;SDS011;1533;44.816;20.420;2022-11-11T22:00:53;58.97;;;38.70;;
3046;SDS011;1533;44.816;20.420;2022-11-11T22:03:21;55.40;;;38.20;;
3046;SDS011;1533;44.816;20.420;2022-11-11T22:05:51;59.40;;;40.40;;
3046;SDS011;1533;44.816;20.420;2022-11-11T22:08:19;51.87;;;36.83;;
3046;SDS011;1533;44.816;20.420;2022-11-11T22:10:49;53.17;;;39.00;;
3046;SDS011;1533;44.816;20.420;2022-11-11T22:13:15;53.20;;;39.27;;
3046;SDS011;1533;44.816;20.420;2022-11-11T22:15:46;56.43;;;40.37;;
3046;SDS011;1533;44.816;20.420;2022-11-11T22:18:17;56.80;;;42.10;;
3046;SDS011;1533;44.816;20.420;2022-11-11T22:20:51;55.30;;;40.47;;
3046;SDS011;1533;44.816;20.420;2022-11-11T22:23:23;58.27;;;39.53;;
3046;SDS011;1533;44.816;20.420;2022-11-11T22:25:51;58.77;;;39.63;;
3046;SDS011;1533;44.816;20.420;2022-11-11T22:28:20;55.43;;;41.20;;
3046;SDS011;1533;44.816;20.420;2022-11-11T22:30:49;54.43;;;38.23;;
3046;SDS011;1533;44.816;20.420;2022-11-11T22:33:17;59.80;;;40.43;;
3046;SDS011;1533;44.816;20.420;2022-11-11T22:35:47;57.43;;;40.63;;
3046;SDS011;1533;44.816;20.420;2022-11-11T22:38:14;51.80;;;38.80;;
3046;SDS011;1533;44.816;20.420;2022-11-11T22:40:48;57.77;;;39.53;;
3046;SDS011;1533;44.816;20.420;2022-11-11T22:43:19;56.97;;;37.57;;
3046;SDS011;1533;44.816;20.420;2022-11-11T22:45:57;63.30;;;39.67;;
3046;SDS011;1533;44.816;20.420;2022-11-11T22:48:32;59.80;;;38.87;;
3046;SDS011;1533;44.816;20.420;2022-11-11T22:51:15;54.17;;;39.30;;
3046;SDS011;1533;44.816;20.420;2022-11-11T23:03:05;53.27;;;39.30;;
3046;SDS011;1533;44.816;20.420;2022-11-11T23:05:59;46.17;;;36.03;;
3046;SDS011;1533;44.816;20.420;2022-11-11T23:08:53;47.53;;;35.70;;
3046;SDS011;1533;44.816;20.420;2022-11-11T23:11:39;48.53;;;36.80;;
3046;SDS011;1533;44.816;20.420;2022-11-11T23:14:06;59.10;;;38.20;;
3046;SDS011;1533;44.816;20.420;2022-11-11T23:16:38;56.03;;;39.10;;
3046;SDS011;1533;44.816;20.420;2022-11-11T23:19:04;45.53;;;37.10;;
3046;SDS011;1533;44.816;20.420;2022-11-11T23:21:39;49.03;;;37.50;;
3046;SDS011;1533;44.816;20.420;2022-11-11T23:24:07;49.73;;;39.63;;
3046;SDS011;1533;44.816;20.420;2022-11-11T23:26:35;50.23;;;37.93;;
3046;SDS011;1533;44.816;20.420;2022-11-11T23:29:05;49.80;;;37.77;;
3046;SDS011;1533;44.816;20.420;2022-11-11T23:31:33;53.67;;;38.13;;
3046;SDS011;1533;44.816;20.420;2022-11-11T23:34:05;50.53;;;37.80;;
3046;SDS011;1533;44.816;20.420;2022-11-11T23:36:40;56.50;;;37.80;;
3046;SDS011;1533;44.816;20.420;2022-11-11T23:39:08;56.00;;;38.90;;
3046;SDS011;1533;44.816;20.420;2022-11-11T23:41:47;51.77;;;38.57;;
3046;SDS011;1533;44.816;20.420;2022-11-11T23:44:21;49.37;;;36.23;;
3046;SDS011;1533;44.816;20.420;2022-11-11T23:46:49;53.00;;;37.10;;
3046;SDS011;1533;44.816;20.420;2022-11-11T23:49:18;53.00;;;38.27;;
3046;SDS011;1533;44.816;20.420;2022-11-11T23:51:43;52.13;;;38.03;;
3046;SDS011;1533;44.816;20.420;2022-11-11T23:54:24;54.50;;;38.63;;
3046;SDS011;1533;44.816;20.420;2022-11-11T23:56:49;48.17;;;38.50;;
3046;SDS011;1533;44.816;20.420;2022-11-11T23:59:20;51.47;;;37.80;;
